createdAt,value
2019-01-06T00:02:27.223Z,102004.45
2019-01-06T00:05:17.134Z,102009.16
2019-01-06T00:08:03.874Z,102003.82
2019-01-06T00:10:48.611Z,102004.13
2019-01-06T00:13:34.295Z,102005.41
2019-01-06T00:16:20.629Z,102004.53
2019-01-06T00:19:06.691Z,101998.55
2019-01-06T00:21:51.512Z,102002.33
2019-01-06T00:24:36.515Z,102006.14
2019-01-06T00:27:22.787Z,102000.26
2019-01-06T00:30:07.294Z,102004.77
2019-01-06T00:33:12.337Z,102008.41
2019-01-06T00:36:14.552Z,102008.73
2019-01-06T00:39:01.733Z,102012.10
2019-01-06T00:41:56.939Z,102015.16
2019-01-06T00:44:51.541Z,102018.84
2019-01-06T00:47:38.215Z,102016.62
2019-01-06T00:50:24.854Z,102020.23
2019-01-06T00:53:10.381Z,102021.80
2019-01-06T00:56:09.306Z,102023.17
2019-01-06T00:58:54.259Z,102029.74
2019-01-06T01:01:47.239Z,102026.09
2019-01-06T01:04:47.579Z,102033.37
2019-01-06T01:07:44.751Z,102041.12
2019-01-06T01:10:30.294Z,102037.48
2019-01-06T01:13:16.629Z,102034.92
2019-01-06T01:16:01.752Z,102039.96
2019-01-06T01:18:47.224Z,102039.87
2019-01-06T01:21:49.055Z,102034.73
2019-01-06T01:24:54.754Z,102040.06
2019-01-06T01:27:40.785Z,102045.59
2019-01-06T01:30:27.513Z,102050.63
2019-01-06T01:33:22.990Z,102048.31
2019-01-06T01:36:09.308Z,102048.60
2019-01-06T01:39:04.971Z,102061.56
2019-01-06T01:41:50.610Z,102058.09
2019-01-06T01:44:42.915Z,102056.30
2019-01-06T01:47:22.955Z,102058.19
2019-01-06T01:50:08.046Z,102050.67
2019-01-06T01:52:54.577Z,102058.23
2019-01-06T01:55:38.866Z,102060.91
2019-01-06T01:58:31.187Z,102065.67
2019-01-06T02:01:09.029Z,102070.72
2019-01-06T02:03:54.388Z,102068.48
2019-01-06T02:06:41.414Z,102068.92
2019-01-06T02:09:35.420Z,102069.81
2019-01-06T02:12:19.244Z,102078.27
2019-01-06T02:15:04.249Z,102075.97
2019-01-06T02:18:03.832Z,102082.43
2019-01-06T02:20:42.267Z,102068.84
2019-01-06T02:23:38.093Z,102073.30
2019-01-06T02:26:39.427Z,102072.70
2019-01-06T02:29:26.397Z,102076.16
2019-01-06T02:32:12.721Z,102074.03
2019-01-06T02:34:59.405Z,102076.88
2019-01-06T02:37:54.570Z,102079.27
2019-01-06T02:40:37.193Z,102077.50
2019-01-06T02:43:27.411Z,102080.63
2019-01-06T02:46:22.423Z,102080.07
2019-01-06T02:49:08.625Z,102089.66
2019-01-06T02:51:57.739Z,102090.81
2019-01-06T02:54:50.054Z,102085.03
2019-01-06T02:57:45.074Z,102080.50
2019-01-06T03:00:35.045Z,102082.97
2019-01-06T03:03:30.214Z,102078.78
2019-01-06T03:06:17.692Z,102082.78
2019-01-06T03:09:05.396Z,102081.31
2019-01-06T03:11:52.321Z,102078.63
2019-01-06T03:14:29.693Z,102080.30
2019-01-06T03:17:25.091Z,102084.16
2019-01-06T03:20:17.338Z,102086.38
2019-01-06T03:23:13.037Z,102083.23
2019-01-06T03:26:05.791Z,102082.70
2019-01-06T03:28:51.204Z,102083.15
2019-01-06T03:31:27.247Z,102092.82
2019-01-06T03:34:17.929Z,102096.11
2019-01-06T03:37:03.441Z,102091.72
2019-01-06T03:39:42.363Z,102083.61
2019-01-06T03:42:21.097Z,102082.64
2019-01-06T03:45:00.597Z,102081.44
2019-01-06T03:47:42.568Z,102080.19
2019-01-06T03:50:27.629Z,102089.51
2019-01-06T03:53:12.672Z,102082.76
2019-01-06T03:55:57.768Z,102080.10
2019-01-06T03:58:43.926Z,102078.87
2019-01-06T04:01:30.005Z,102078.13
2019-01-06T04:04:23.305Z,102080.29
2019-01-06T04:10:02.019Z,102088.92
2019-01-06T04:12:43.432Z,102083.97
2019-01-06T04:15:20.179Z,102083.02
2019-01-06T04:18:06.607Z,102080.47
2019-01-06T04:20:50.248Z,102086.25
2019-01-06T04:23:35.515Z,102085.96
2019-01-06T04:26:21.280Z,102088.37
2019-01-06T04:29:06.756Z,102078.11
2019-01-06T04:31:59.314Z,102082.68
2019-01-06T04:34:57.826Z,102079.11
2019-01-06T04:37:53.221Z,102080.97
2019-01-06T04:40:58.336Z,102084.63
2019-01-06T04:43:44.690Z,102078.30
2019-01-06T04:46:46.004Z,102073.92
2019-01-06T04:49:31.049Z,102069.05
2019-01-06T04:52:29.456Z,102065.20
2019-01-06T04:55:10.501Z,102068.80
2019-01-06T04:57:55.398Z,102067.95
2019-01-06T05:00:53.881Z,102066.25
2019-01-06T05:03:39.130Z,102070.84
2019-01-06T05:06:28.909Z,102074.27
2019-01-06T05:09:35.217Z,102079.56
2019-01-06T05:12:20.229Z,102078.62
2019-01-06T05:15:18.816Z,102079.56
2019-01-06T05:18:14.798Z,102077.87
2019-01-06T05:21:00.354Z,102079.17
2019-01-06T05:23:58.784Z,102080.89
2019-01-06T05:26:47.915Z,102085.05
2019-01-06T05:29:23.917Z,102077.50
2019-01-06T05:32:08.838Z,102086.44
2019-01-06T05:34:53.819Z,102085.95
2019-01-06T05:37:42.696Z,102090.67
2019-01-06T05:40:33.850Z,102094.78
2019-01-06T05:43:20.738Z,102097.87
2019-01-06T05:46:06.180Z,102105.88
2019-01-06T05:48:52.058Z,102100.79
2019-01-06T05:51:37.495Z,102101.37
2019-01-06T05:54:27.219Z,102092.15
2019-01-06T05:57:19.918Z,102096.83
2019-01-06T06:00:05.738Z,102102.11
2019-01-06T06:02:54.859Z,102094.80
2019-01-06T06:05:37.285Z,102093.00
2019-01-06T06:08:33.399Z,102102.45
2019-01-06T06:11:18.703Z,102104.23
2019-01-06T06:14:10.932Z,102101.16
2019-01-06T06:17:11.299Z,102105.91
2019-01-06T06:20:16.266Z,102102.89
2019-01-06T06:22:54.831Z,102100.87
2019-01-06T06:25:51.387Z,102101.73
2019-01-06T06:28:38.213Z,102108.09
2019-01-06T06:31:39.913Z,102115.11
2019-01-06T06:34:18.632Z,102111.48
2019-01-06T06:37:09.035Z,102119.80
2019-01-06T06:39:54.088Z,102119.48
2019-01-06T06:42:46.759Z,102122.68
2019-01-06T06:45:29.758Z,102127.80
2019-01-06T06:48:19.090Z,102123.41
2019-01-06T06:51:16.202Z,102128.08
2019-01-06T06:54:02.986Z,102122.88
2019-01-06T06:56:49.335Z,102121.77
2019-01-06T06:59:34.068Z,102128.72
2019-01-06T07:02:57.722Z,102129.55
2019-01-06T07:09:01.586Z,102146.53
2019-01-06T07:11:40.708Z,102146.38
2019-01-06T07:14:27.646Z,102151.02
2019-01-06T07:17:53.847Z,102159.52
2019-01-06T07:20:40.301Z,102160.56
2019-01-06T07:23:25.979Z,102165.36
2019-01-06T07:26:11.923Z,102173.23
2019-01-06T07:28:56.915Z,102175.80
2019-01-06T07:31:42.581Z,102179.39
2019-01-06T07:34:47.089Z,102184.44
2019-01-06T07:37:40.587Z,102184.56
2019-01-06T07:40:26.766Z,102184.53
2019-01-06T07:43:10.158Z,102190.86
2019-01-06T07:45:55.288Z,102193.25
2019-01-06T07:48:41.454Z,102195.33
2019-01-06T07:51:21.239Z,102195.50
2019-01-06T07:54:06.354Z,102196.29
2019-01-06T07:56:54.794Z,102201.05
2019-01-06T07:59:47.292Z,102197.95
2019-01-06T08:02:38.062Z,102198.94
2019-01-06T08:05:20.803Z,102206.17
2019-01-06T08:08:07.725Z,102207.74
2019-01-06T08:10:53.614Z,102210.39
2019-01-06T08:13:32.825Z,102213.31
2019-01-06T08:16:28.569Z,102222.84
2019-01-06T08:19:17.507Z,102221.34
2019-01-06T08:21:58.478Z,102229.49
2019-01-06T08:25:01.354Z,102233.05
2019-01-06T08:28:01.666Z,102229.64
2019-01-06T08:30:47.403Z,102226.91
2019-01-06T08:33:34.156Z,102233.37
2019-01-06T08:36:20.166Z,102237.48
2019-01-06T08:39:05.694Z,102234.44
2019-01-06T08:42:01.244Z,102229.61
2019-01-06T08:44:53.937Z,102233.08
2019-01-06T08:47:44.229Z,102233.27
2019-01-06T08:50:30.557Z,102232.16
2019-01-06T08:53:39.812Z,102230.31
2019-01-06T08:56:20.621Z,102232.47
2019-01-06T08:59:16.274Z,102231.50
2019-01-06T09:02:01.814Z,102227.40
2019-01-06T09:04:54.598Z,102227.44
2019-01-06T09:07:43.414Z,102227.88
2019-01-06T09:13:29.472Z,102231.68
2019-01-06T09:16:23.540Z,102236.33
2019-01-06T09:19:09.122Z,102237.44
2019-01-06T09:21:46.995Z,102239.47
2019-01-06T09:24:32.733Z,102249.69
2019-01-06T09:27:19.876Z,102249.81
2019-01-06T09:30:09.555Z,102252.69
2019-01-06T09:33:02.438Z,102254.82
2019-01-06T09:35:47.253Z,102255.49
2019-01-06T09:38:33.189Z,102256.45
2019-01-06T09:41:16.378Z,102263.38
2019-01-06T09:44:12.555Z,102258.95
2019-01-06T09:47:08.131Z,102258.63
2019-01-06T09:50:02.242Z,102260.41
2019-01-06T09:52:55.379Z,102258.25
2019-01-06T09:55:42.384Z,102252.73
2019-01-06T09:58:29.368Z,102252.27
2019-01-06T10:01:15.313Z,102253.00
2019-01-06T10:04:14.099Z,102249.38
2019-01-06T10:07:19.201Z,102250.75
2019-01-06T10:10:18.950Z,102255.09
2019-01-06T10:13:15.473Z,102251.97
2019-01-06T10:16:01.126Z,102258.67
2019-01-06T10:18:47.153Z,102254.67
2019-01-06T10:21:39.518Z,102256.25
2019-01-06T10:24:24.585Z,102252.08
2019-01-06T10:27:10.581Z,102257.83
2019-01-06T10:29:57.258Z,102256.36
2019-01-06T10:32:59.252Z,102248.71
2019-01-06T10:35:44.459Z,102245.44
2019-01-06T10:38:29.526Z,102247.92
2019-01-06T10:41:14.785Z,102242.16
2019-01-06T10:44:04.970Z,102242.09
2019-01-06T10:47:00.610Z,102240.50
2019-01-06T10:49:45.493Z,102245.25
2019-01-06T10:52:32.225Z,102237.84
2019-01-06T10:55:37.302Z,102238.52
2019-01-06T10:58:26.862Z,102237.00
2019-01-06T11:01:17.661Z,102237.15
2019-01-06T11:04:03.466Z,102233.34
2019-01-06T11:07:04.863Z,102231.30
2019-01-06T11:10:03.302Z,102226.13
2019-01-06T11:12:48.949Z,102232.10
2019-01-06T11:15:29.498Z,102239.97
2019-01-06T11:18:25.862Z,102240.16
2019-01-06T11:21:24.282Z,102243.41
2019-01-06T11:24:09.497Z,102244.73
2019-01-06T11:26:50.101Z,102240.78
2019-01-06T11:29:27.882Z,102244.98
2019-01-06T11:35:05.723Z,102246.25
2019-01-06T11:37:45.453Z,102244.62
2019-01-06T11:40:31.505Z,102243.86
2019-01-06T11:43:26.876Z,102233.46
2019-01-06T11:46:10.920Z,102231.45
2019-01-06T11:48:55.840Z,102233.80
2019-01-06T11:51:49.985Z,102234.56
2019-01-06T11:54:35.525Z,102232.88
2019-01-06T11:57:21.949Z,102237.79
2019-01-06T12:00:09.147Z,102232.70
2019-01-06T12:02:49.939Z,102231.89
2019-01-06T12:05:40.134Z,102238.45
2019-01-06T12:08:41.459Z,102230.49
2019-01-06T12:11:26.446Z,102229.22
2019-01-06T12:14:12.806Z,102234.20
2019-01-06T12:17:14.016Z,102229.61
2019-01-06T12:19:59.630Z,102224.48
2019-01-06T12:22:45.317Z,102228.81
2019-01-06T12:25:32.769Z,102229.61
2019-01-06T12:28:12.906Z,102231.09
2019-01-06T12:31:07.116Z,102231.81
2019-01-06T12:33:52.552Z,102228.16
2019-01-06T12:36:54.447Z,102225.39
2019-01-06T12:39:40.922Z,102221.66
2019-01-06T12:42:27.933Z,102219.86
2019-01-06T12:45:14.642Z,102217.63
2019-01-06T12:48:00.218Z,102216.06
2019-01-06T12:50:48.678Z,102217.72
2019-01-06T12:53:40.099Z,102217.22
2019-01-06T12:56:20.261Z,102224.64
2019-01-06T12:59:05.777Z,102215.82
2019-01-06T13:01:50.847Z,102216.90
2019-01-06T13:04:37.022Z,102222.94
2019-01-06T13:07:22.388Z,102221.80
2019-01-06T13:10:08.083Z,102218.42
2019-01-06T13:13:13.035Z,102217.69
2019-01-06T13:16:17.951Z,102218.28
2019-01-06T13:19:10.924Z,102223.09
2019-01-06T13:21:56.594Z,102220.03
2019-01-06T13:24:36.729Z,102221.42
2019-01-06T13:27:29.185Z,102225.91
2019-01-06T13:30:14.654Z,102223.13
2019-01-06T13:33:19.626Z,102222.81
2019-01-06T13:36:14.290Z,102227.98
2019-01-06T13:38:52.139Z,102226.97
2019-01-06T13:41:38.434Z,102232.05
2019-01-06T13:44:24.319Z,102234.41
2019-01-06T13:47:16.831Z,102232.00
2019-01-06T13:50:02.607Z,102233.25
2019-01-06T13:52:58.634Z,102235.51
2019-01-06T13:56:02.930Z,102227.94
2019-01-06T13:58:58.821Z,102235.19
2019-01-06T14:01:35.763Z,102235.38
2019-01-06T14:04:24.899Z,102238.42
2019-01-06T14:07:09.914Z,102246.36
2019-01-06T14:09:55.403Z,102247.52
2019-01-06T14:12:42.066Z,102243.49
2019-01-06T14:15:40.463Z,102248.85
2019-01-06T14:18:21.021Z,102249.00
2019-01-06T14:21:09.071Z,102247.06
2019-01-06T14:23:50.230Z,102248.40
2019-01-06T14:26:42.190Z,102246.69
2019-01-06T14:29:27.853Z,102248.67
2019-01-06T14:32:17.072Z,102248.16
2019-01-06T14:35:03.798Z,102250.05
2019-01-06T14:37:57.726Z,102247.89
2019-01-06T14:40:34.481Z,102249.41
2019-01-06T14:43:30.210Z,102253.16
2019-01-06T14:46:15.243Z,102250.14
2019-01-06T14:49:20.835Z,102253.98
2019-01-06T14:52:22.634Z,102246.92
2019-01-06T14:55:24.098Z,102255.97
2019-01-06T14:58:05.133Z,102253.47
2019-01-06T15:00:55.976Z,102253.11
2019-01-06T15:03:48.263Z,102256.38
2019-01-06T15:06:43.998Z,102252.55
2019-01-06T15:09:43.026Z,102247.06
2019-01-06T15:12:28.426Z,102252.88
2019-01-06T15:15:26.934Z,102247.37
2019-01-06T15:18:12.815Z,102254.03
2019-01-06T15:21:00.002Z,102256.80
2019-01-06T15:23:41.625Z,102256.99
2019-01-06T15:26:33.534Z,102261.09
2019-01-06T15:29:23.718Z,102257.72
2019-01-06T15:32:09.769Z,102256.67
2019-01-06T15:34:56.176Z,102261.73
2019-01-06T15:37:43.935Z,102255.42
2019-01-06T15:40:42.594Z,102262.39
2019-01-06T15:43:28.134Z,102258.66
2019-01-06T15:46:32.540Z,102264.84
2019-01-06T15:49:14.137Z,102259.98
2019-01-06T15:52:18.362Z,102254.91
2019-01-06T15:55:05.034Z,102262.39
2019-01-06T15:57:51.333Z,102258.33
2019-01-06T16:00:36.329Z,102260.22
2019-01-06T16:03:21.840Z,102257.58
2019-01-06T16:06:14.166Z,102260.41
2019-01-06T16:09:11.506Z,102264.89
2019-01-06T16:12:09.726Z,102261.98
2019-01-06T16:14:57.149Z,102270.11
2019-01-06T16:17:46.608Z,102268.48
2019-01-06T16:20:43.314Z,102271.49
2019-01-06T16:23:39.999Z,102281.05
2019-01-06T16:26:37.747Z,102276.30
2019-01-06T16:29:36.753Z,102279.77
2019-01-06T16:32:22.035Z,102282.99
2019-01-06T16:35:07.146Z,102281.42
2019-01-06T16:38:02.908Z,102289.09
2019-01-06T16:40:54.014Z,102288.13
2019-01-06T16:43:40.054Z,102282.11
2019-01-06T16:46:25.396Z,102284.43
2019-01-06T16:49:12.384Z,102276.25
2019-01-06T16:51:57.556Z,102270.11
2019-01-06T16:54:47.418Z,102282.16
2019-01-06T16:57:42.373Z,102285.36
2019-01-06T17:00:46.920Z,102290.02
2019-01-06T17:03:32.762Z,102288.13
2019-01-06T17:06:17.881Z,102285.27
2019-01-06T17:09:04.298Z,102285.31
2019-01-06T17:11:51.344Z,102284.43
2019-01-06T17:14:43.667Z,102283.55
2019-01-06T17:17:29.734Z,102286.45
2019-01-06T17:20:28.166Z,102278.42
2019-01-06T17:23:14.994Z,102290.66
2019-01-06T17:25:59.916Z,102284.38
2019-01-06T17:28:49.522Z,102288.13
2019-01-06T17:31:34.382Z,102280.50
2019-01-06T17:34:36.373Z,102287.25
2019-01-06T17:37:22.186Z,102282.16
2019-01-06T17:40:09.003Z,102287.01
2019-01-06T17:42:53.140Z,102288.30
2019-01-06T17:45:39.008Z,102292.00
2019-01-06T17:48:34.198Z,102298.42
2019-01-06T17:51:20.616Z,102294.54
2019-01-06T17:54:15.958Z,102294.91
2019-01-06T17:57:01.294Z,102300.05
2019-01-06T17:59:46.765Z,102296.16
2019-01-06T18:02:32.211Z,102296.30
2019-01-06T18:05:21.747Z,102297.08
2019-01-06T18:08:08.322Z,102297.64
2019-01-06T18:10:47.887Z,102297.49
2019-01-06T18:13:33.402Z,102300.27
2019-01-06T18:16:13.910Z,102307.62
2019-01-06T18:19:12.825Z,102303.77
2019-01-06T18:21:51.852Z,102298.80
2019-01-06T18:24:29.297Z,102308.67
2019-01-06T18:27:33.828Z,102308.11
2019-01-06T18:30:30.967Z,102306.22
2019-01-06T18:33:14.864Z,102304.05
2019-01-06T18:35:59.439Z,102307.61
2019-01-06T18:38:58.407Z,102308.90
2019-01-06T18:41:56.733Z,102299.47
2019-01-06T18:44:42.501Z,102301.20
2019-01-06T18:47:37.673Z,102298.92
2019-01-06T18:50:23.748Z,102303.53
2019-01-06T18:53:09.668Z,102301.97
2019-01-06T18:55:56.639Z,102310.08
2019-01-06T18:58:42.094Z,102307.26
2019-01-06T19:01:31.258Z,102299.02
2019-01-06T19:04:24.057Z,102299.51
2019-01-06T19:07:10.817Z,102284.04
2019-01-06T19:10:00.536Z,102286.65
2019-01-06T19:12:45.569Z,102288.84
2019-01-06T19:15:33.123Z,102280.72
2019-01-06T19:18:11.138Z,102287.50
2019-01-06T19:20:56.737Z,102293.39
2019-01-06T19:23:44.027Z,102292.81
2019-01-06T19:26:39.622Z,102288.42
2019-01-06T19:29:24.837Z,102291.50
2019-01-06T19:32:07.546Z,102292.80
2019-01-06T19:34:57.476Z,102290.70
2019-01-06T19:37:46.537Z,102291.58
2019-01-06T19:40:36.162Z,102292.05
2019-01-06T19:43:20.974Z,102291.58
2019-01-06T19:46:16.586Z,102294.03
2019-01-06T19:49:00.526Z,102293.34
2019-01-06T19:51:45.839Z,102294.63
2019-01-06T19:54:32.557Z,102292.65
2019-01-06T19:57:30.392Z,102291.59
2019-01-06T20:00:25.739Z,102289.42
2019-01-06T20:03:09.480Z,102288.08
2019-01-06T20:05:53.813Z,102280.78
2019-01-06T20:08:43.239Z,102283.36
2019-01-06T20:11:28.746Z,102284.01
2019-01-06T20:14:10.166Z,102277.86
2019-01-06T20:16:56.067Z,102284.14
2019-01-06T20:19:41.852Z,102280.40
2019-01-06T20:22:38.273Z,102285.39
2019-01-06T20:25:28.467Z,102273.61
2019-01-06T20:28:15.173Z,102287.10
2019-01-06T20:31:14.373Z,102298.14
2019-01-06T20:33:59.121Z,102289.41
2019-01-06T20:37:00.849Z,102282.84
2019-01-06T20:39:49.937Z,102285.53
2019-01-06T20:42:39.872Z,102285.48
2019-01-06T20:45:29.683Z,102292.41
2019-01-06T20:48:11.035Z,102289.31
2019-01-06T20:50:57.334Z,102290.25
2019-01-06T20:53:36.063Z,102287.98
2019-01-06T20:56:21.959Z,102286.33
2019-01-06T20:59:14.117Z,102283.92
2019-01-06T21:02:09.854Z,102279.53
2019-01-06T21:04:55.256Z,102281.70
2019-01-06T21:07:51.157Z,102282.25
2019-01-06T21:10:53.322Z,102283.12
2019-01-06T21:13:42.775Z,102286.33
2019-01-06T21:16:32.299Z,102290.06
2019-01-06T21:19:27.574Z,102288.80
2019-01-06T21:22:12.664Z,102292.45
2019-01-06T21:24:58.229Z,102291.41
2019-01-06T21:27:43.502Z,102287.38
2019-01-06T21:30:33.648Z,102293.30
2019-01-06T21:36:25.011Z,102297.31
2019-01-06T21:39:10.405Z,102297.83
2019-01-06T21:41:56.110Z,102301.42
2019-01-06T21:44:37.003Z,102294.45
2019-01-06T21:47:37.913Z,102296.39
2019-01-06T21:50:36.633Z,102298.47
2019-01-06T21:53:35.384Z,102295.47
2019-01-06T21:56:25.237Z,102290.43
2019-01-06T21:59:11.817Z,102289.09
2019-01-06T22:01:57.280Z,102302.44
2019-01-06T22:04:39.498Z,102298.98
2019-01-06T22:07:38.770Z,102297.22
2019-01-06T22:10:34.111Z,102294.04
2019-01-06T22:13:30.541Z,102293.39
2019-01-06T22:16:13.565Z,102292.84
2019-01-06T22:19:18.632Z,102288.72
2019-01-06T22:22:04.352Z,102295.24
2019-01-06T22:24:59.511Z,102295.47
2019-01-06T22:27:45.544Z,102287.25
2019-01-06T22:30:34.910Z,102284.80
2019-01-06T22:33:18.386Z,102288.17
2019-01-06T22:36:01.636Z,102290.89
2019-01-06T22:38:47.082Z,102286.52
2019-01-06T22:41:32.834Z,102293.16
2019-01-06T22:44:25.218Z,102287.52
2019-01-06T22:47:17.226Z,102292.14
2019-01-06T22:50:00.687Z,102286.00
2019-01-06T22:52:45.522Z,102282.02
2019-01-06T22:55:31.016Z,102275.00
2019-01-06T22:58:23.053Z,102278.56
2019-01-06T23:01:08.874Z,102277.68
2019-01-06T23:04:03.632Z,102276.25
2019-01-06T23:06:49.113Z,102282.02
2019-01-06T23:09:34.597Z,102281.33
2019-01-06T23:12:14.600Z,102277.87
2019-01-06T23:14:57.574Z,102276.02
2019-01-06T23:17:57.342Z,102279.20
2019-01-06T23:20:47.288Z,102284.37
2019-01-06T23:23:38.501Z,102281.33
2019-01-06T23:26:26.102Z,102281.19
2019-01-06T23:29:25.851Z,102274.40
2019-01-06T23:32:12.928Z,102275.55
2019-01-06T23:35:05.281Z,102277.54
2019-01-06T23:37:47.996Z,102272.14
2019-01-06T23:40:51.044Z,102274.27
2019-01-06T23:43:40.858Z,102275.37
2019-01-06T23:46:27.437Z,102280.91
2019-01-06T23:49:12.481Z,102286.12
2019-01-06T23:52:16.764Z,102284.09
2019-01-06T23:55:02.578Z,102287.37
2019-01-06T23:57:44.535Z,102285.80
